Time;durP1;ratioP1;P1;durP2;ratioP2;P2;SDS_P1;SDS_P2;PMS_P1;PMS_P2;Temp;Humidity;BMP_temperature;BMP_pressure;BME280_temperature;BME280_humidity;BME280_pressure;Samples;Min_cycle;Max_cycle;Signal;HPM_P1;HPM_P2
2022/11/18 00:28:52;;;;;;;;;1.00;1.00;;;;;7.38;100.00;98764.16;6320056;22;46993;-93
2022/11/18 00:31:18;;;;;;;;;2.25;1.00;;;;;8.78;100.00;99018.81;6348623;22;45578;-93
2022/11/18 00:33:43;;;;;;;;;1.00;1.00;;;;;8.10;100.00;98921.19;6349764;22;45234;-96
2022/11/18 00:36:13;;;;;;;;;0.50;0.00;;;;;9.01;100.00;99053.03;6379178;22;45582;-93
2022/11/18 00:38:39;;;;;;;;;1.00;1.00;;;;;8.59;100.00;98993.13;6373310;22;48367;-93
2022/11/18 00:41:07;;;;;;;;;0.00;0.00;;;;;8.57;100.00;98987.06;6369049;22;45924;-92
2022/11/18 00:43:33;;;;;;;;;1.75;1.00;;;;;8.14;100.00;98938.59;6344666;22;45145;-92
2022/11/18 00:45:59;;;;;;;;;0.75;0.75;;;;;8.75;100.00;99034.72;6352155;22;44746;-92
2022/11/18 00:48:25;;;;;;;;;1.00;1.00;;;;;8.77;100.00;99049.53;6328260;22;46195;-93
2022/11/18 00:50:53;;;;;;;;;1.00;0.00;;;;;7.95;100.00;98912.06;6325137;22;45187;-94
2022/11/18 00:53:21;;;;;;;;;1.00;1.00;;;;;8.47;100.00;99017.28;6322253;22;44750;-92
2022/11/18 00:55:46;;;;;;;;;1.00;1.00;;;;;7.91;100.00;98921.84;6289843;22;45211;-94
2022/11/18 00:58:15;;;;;;;;;1.00;1.00;;;;;9.06;100.00;99140.72;6318105;22;47081;-94
2022/11/18 01:00:42;;;;;;;;;0.00;0.00;;;;;7.77;100.00;98914.44;6310036;22;45201;-94
2022/11/18 01:03:09;;;;;;;;;0.75;0.75;;;;;9.02;100.00;99125.91;6315360;22;45243;-93
2022/11/18 01:05:37;;;;;;;;;0.75;0.75;;;;;7.25;100.00;98835.56;6340999;22;45267;-94
2022/11/18 01:08:10;;;;;;;;;0.00;0.00;;;;;8.21;100.00;99007.66;6308498;22;46115;-94
2022/11/18 01:10:37;;;;;;;;;1.00;0.50;;;;;7.89;100.00;98949.94;6313297;22;45346;-95
2022/11/18 01:13:19;;;;;;;;;0.25;0.25;;;;;8.57;100.00;99065.22;6347065;22;45240;-93
2022/11/18 01:15:57;;;;;;;;;2.00;1.00;;;;;7.83;100.00;98942.28;6298232;22;45507;-92
2022/11/18 01:18:31;;;;;;;;;0.00;0.00;;;;;8.96;100.00;99126.16;6321860;22;46192;-94
2022/11/18 01:21:02;;;;;;;;;2.25;1.25;;;;;7.85;100.00;98955.38;6316270;22;45123;-93
2022/11/18 01:23:28;;;;;;;;;1.00;1.00;;;;;7.96;100.00;98983.03;6343335;22;45326;-93
2022/11/18 01:25:54;;;;;;;;;0.25;0.25;;;;;7.95;100.00;98955.00;6318255;22;45370;-94
2022/11/18 01:28:23;;;;;;;;;0.50;0.50;;;;;8.95;100.00;99142.88;6325849;22;45999;-94
2022/11/18 01:30:48;;;;;;;;;2.00;2.00;;;;;8.15;100.00;99004.31;6340028;22;45226;-93
2022/11/18 01:33:14;;;;;;;;;1.00;0.50;;;;;8.35;100.00;99027.31;6289183;22;45207;-94
2022/11/18 01:35:42;;;;;;;;;1.75;0.50;;;;;8.82;100.00;99117.88;6313978;22;45126;-94
2022/11/18 01:38:11;;;;;;;;;0.00;0.00;;;;;8.28;100.00;99033.69;6310005;22;45331;-93
2022/11/18 01:40:37;;;;;;;;;0.00;0.00;;;;;6.74;100.00;98778.59;6314712;22;45234;-94
2022/11/18 01:43:11;;;;;;;;;0.00;0.00;;;;;7.21;100.00;98886.53;6317406;22;45219;-94
2022/11/18 01:45:41;;;;;;;;;2.25;0.25;;;;;7.80;100.00;98971.31;6327260;22;45375;-93
2022/11/18 01:48:25;;;;;;;;;1.00;1.00;;;;;8.45;100.00;99106.00;6325071;22;47230;-94
2022/11/18 01:51:00;;;;;;;;;2.75;1.00;;;;;7.81;100.00;98994.09;6321492;22;44557;-93
2022/11/18 01:53:41;;;;;;;;;1.00;1.00;;;;;7.87;100.00;99022.81;6345023;22;45149;-92
2022/11/18 01:56:25;;;;;;;;;0.50;0.50;;;;;7.99;100.00;99042.59;6348219;22;45204;-93
2022/11/18 01:59:06;;;;;;;;;0.00;0.00;;;;;7.21;100.00;98912.81;6317235;22;47160;-93
2022/11/18 02:14:23;;;;;;;;;0.25;0.00;;;;;7.89;100.00;99063.06;6324882;22;45161;-93
2022/11/18 02:17:26;;;;;;;;;0.00;0.00;;;;;7.75;100.00;99031.13;6324426;22;45253;-93
2022/11/18 02:20:06;;;;;;;;;0.00;0.00;;;;;6.94;100.00;98907.50;6320023;22;45287;-93
2022/11/18 02:23:03;;;;;;;;;0.00;0.00;;;;;6.31;100.00;98795.72;6288411;22;46640;-91
2022/11/18 02:26:06;;;;;;;;;1.50;0.00;;;;;8.64;100.00;99186.09;6312202;22;45164;-92
2022/11/18 02:28:40;;;;;;;;;0.00;0.00;;;;;6.96;100.00;98930.25;6314506;22;44551;-91
2022/11/18 02:31:28;;;;;;;;;0.00;0.00;;;;;8.59;100.00;99193.28;6319861;22;45349;-91
2022/11/18 02:34:02;;;;;;;;;0.00;0.00;;;;;6.68;100.00;98873.31;6316320;22;47218;-93
2022/11/18 02:36:40;;;;;;;;;0.00;0.00;;;;;6.80;100.00;98914.09;6320018;22;45206;-92
2022/11/18 02:39:17;;;;;;;;;2.75;1.75;;;;;7.80;100.00;99077.41;6315429;22;45209;-93
2022/11/18 02:41:54;;;;;;;;;1.00;1.00;;;;;8.13;100.00;99142.13;6288179;22;45381;-93
2022/11/18 02:44:23;;;;;;;;;2.00;1.00;;;;;7.44;100.00;99016.34;6347813;22;48284;-93
2022/11/18 02:46:56;;;;;;;;;0.00;0.00;;;;;7.08;100.00;98982.41;6339051;22;46002;-92
2022/11/18 02:49:44;;;;;;;;;0.00;0.00;;;;;8.41;100.00;99193.88;6311564;22;45350;-92
2022/11/18 02:52:12;;;;;;;;;1.75;0.00;;;;;7.92;100.00;99122.63;6284971;22;45119;-93
2022/11/18 02:54:47;;;;;;;;;0.50;0.50;;;;;7.98;100.00;99128.53;6291748;22;47783;-91
2022/11/18 02:57:15;;;;;;;;;0.50;0.50;;;;;7.49;100.00;99058.25;6319108;22;45293;-93
2022/11/18 02:59:49;;;;;;;;;0.00;0.00;;;;;7.01;100.00;98978.25;6324167;22;45330;-93
2022/11/18 03:02:17;;;;;;;;;0.00;0.00;;;;;6.87;100.00;98976.03;6293086;22;45199;-94
2022/11/18 03:04:45;;;;;;;;;0.50;0.00;;;;;6.50;100.00;98899.25;6342771;22;45653;-94
2022/11/18 03:07:28;;;;;;;;;0.00;0.00;;;;;6.70;100.00;98937.16;6317498;22;45216;-95
2022/11/18 03:09:58;;;;;;;;;0.00;0.00;;;;;7.20;100.00;99021.44;6330786;22;45312;-94
2022/11/18 03:12:42;;;;;;;;;0.00;0.00;;;;;8.41;100.00;99233.38;6326536;22;44858;-93
2022/11/18 03:15:39;;;;;;;;;0.25;0.25;;;;;8.39;100.00;99240.47;6319388;22;45284;-94
2022/11/18 03:18:26;;;;;;;;;0.00;0.00;;;;;8.23;100.00;99232.19;6309822;22;45402;-94
2022/11/18 03:20:57;;;;;;;;;0.00;0.00;;;;;7.95;100.00;99169.91;6324332;22;45154;-93
2022/11/18 03:23:37;;;;;;;;;0.00;0.00;;;;;8.33;100.00;99244.16;6315226;22;44801;-94
2022/11/18 03:26:11;;;;;;;;;1.00;1.00;;;;;6.54;100.00;98944.63;6343689;22;46944;-95
2022/11/18 03:28:49;;;;;;;;;0.00;0.00;;;;;7.25;100.00;99068.59;6320109;22;45203;-94
2022/11/18 03:31:17;;;;;;;;;2.00;0.00;;;;;8.31;100.00;99244.19;6322787;22;45408;-93
2022/11/18 03:34:16;;;;;;;;;2.00;0.75;;;;;7.72;100.00;99160.09;6324699;22;45352;-93
2022/11/18 03:36:46;;;;;;;;;0.00;0.00;;;;;6.58;100.00;98972.50;6336667;22;47204;-93
2022/11/18 03:39:17;;;;;;;;;0.00;0.00;;;;;7.88;100.00;99184.16;6316529;22;45387;-93
2022/11/18 03:41:49;;;;;;;;;1.00;1.00;;;;;8.26;100.00;99264.56;6297017;22;45255;-92
2022/11/18 03:44:28;;;;;;;;;0.00;0.00;;;;;7.13;100.00;99075.09;6322651;22;44783;-93
2022/11/18 03:47:15;;;;;;;;;0.00;0.00;;;;;7.84;100.00;99217.59;6343154;22;47341;-93
2022/11/18 03:49:53;;;;;;;;;0.00;0.00;;;;;8.24;100.00;99268.13;6312375;22;45186;-94
2022/11/18 03:52:26;;;;;;;;;2.00;0.00;;;;;6.81;100.00;99062.91;6309231;22;45362;-94
2022/11/18 03:54:58;;;;;;;;;0.00;0.00;;;;;7.79;100.00;99216.88;6318386;22;44883;-93
2022/11/18 03:57:34;;;;;;;;;0.00;0.00;;;;;6.32;100.00;98979.38;6348836;22;47114;-92
2022/11/18 04:00:13;;;;;;;;;0.00;0.00;;;;;7.32;100.00;99163.91;6323439;22;45190;-93
2022/11/18 04:02:40;;;;;;;;;0.00;0.00;;;;;7.25;100.00;99153.56;6346784;22;45126;-93
2022/11/18 04:05:09;;;;;;;;;0.00;0.00;;;;;7.27;100.00;99156.16;6336485;22;45362;-92
2022/11/18 04:08:06;;;;;;;;;0.00;0.00;;;;;7.48;100.00;99201.97;6334278;22;47047;-92
2022/11/18 04:10:40;;;;;;;;;0.00;0.00;;;;;8.14;100.00;99301.78;6317478;22;45402;-91
2022/11/18 04:13:16;;;;;;;;;0.50;0.50;;;;;7.86;100.00;99259.63;6318078;22;45206;-94
2022/11/18 04:15:46;;;;;;;;;0.00;0.00;;;;;7.02;100.00;99127.09;6315467;22;45407;-93
2022/11/18 04:18:12;;;;;;;;;0.75;0.75;;;;;5.93;100.00;98942.78;6310684;22;45223;-94
2022/11/18 04:20:38;;;;;;;;;0.00;0.00;;;;;7.11;100.00;99167.09;6312394;22;45452;-91
2022/11/18 04:23:04;;;;;;;;;0.50;0.50;;;;;6.72;100.00;99112.13;6290373;22;45096;-94
2022/11/18 04:25:33;;;;;;;;;1.00;0.25;;;;;8.08;100.00;99330.91;6323034;22;44846;-93
2022/11/18 04:27:58;;;;;;;;;2.00;0.00;;;;;7.66;100.00;99279.47;6327070;22;46685;-92
2022/11/18 04:30:31;;;;;;;;;0.00;0.00;;;;;7.44;100.00;99216.16;6330131;22;45264;-91
2022/11/18 04:32:57;;;;;;;;;0.50;0.50;;;;;7.48;100.00;99233.53;6332415;22;44553;-92
2022/11/18 04:35:24;;;;;;;;;1.25;1.25;;;;;7.42;100.00;99220.56;6326516;22;44900;-93
2022/11/18 04:37:49;;;;;;;;;1.00;1.00;;;;;6.94;100.00;99179.84;6326503;22;46820;-92
2022/11/18 04:40:15;;;;;;;;;0.00;0.00;;;;;7.43;100.00;99261.72;6328040;22;44715;-92
2022/11/18 04:42:41;;;;;;;;;2.50;1.00;;;;;5.99;100.00;99002.13;6357825;22;44798;-90
2022/11/18 04:45:09;;;;;;;;;1.25;0.75;;;;;6.58;100.00;99103.78;6298312;22;45121;-92
2022/11/18 04:47:37;;;;;;;;;0.50;0.50;;;;;7.00;100.00;99176.19;6317281;22;46184;-93
2022/11/18 04:50:04;;;;;;;;;1.00;1.00;;;;;8.07;100.00;99347.59;6319165;22;45256;-91
2022/11/18 04:52:29;;;;;;;;;1.00;0.25;;;;;7.37;100.00;99252.25;6293794;22;45256;-93
2022/11/18 04:54:55;;;;;;;;;1.00;0.00;;;;;7.23;100.00;99228.13;6317348;22;45430;-92
2022/11/18 04:57:21;;;;;;;;;0.75;0.75;;;;;7.71;100.00;99303.03;6311161;22;46669;-93
2022/11/18 04:59:48;;;;;;;;;0.50;0.50;;;;;6.96;100.00;99209.56;6315159;22;45375;-93
2022/11/18 05:02:14;;;;;;;;;0.00;0.00;;;;;6.75;100.00;99159.31;6320080;22;45181;-94
2022/11/18 05:04:40;;;;;;;;;3.00;0.00;;;;;7.68;100.00;99313.63;6319479;22;44912;-94
2022/11/18 05:07:06;;;;;;;;;0.50;0.50;;;;;6.38;100.00;99114.81;6312027;22;46674;-93
2022/11/18 05:09:32;;;;;;;;;0.50;0.00;;;;;7.88;100.00;99348.13;6310918;22;45863;-94
2022/11/18 05:14:42;;;;;;;;;3.00;1.75;;;;;7.99;100.00;99356.56;6318664;22;44658;-92
2022/11/18 05:17:09;;;;;;;;;1.25;0.25;;;;;7.86;100.00;99349.06;6315653;22;46601;-92
2022/11/18 05:19:39;;;;;;;;;1.75;1.00;;;;;6.67;100.00;99139.44;6314573;22;45349;-94
2022/11/18 05:22:05;;;;;;;;;1.00;1.00;;;;;7.18;100.00;99233.50;6341626;22;45196;-92
2022/11/18 05:24:31;;;;;;;;;2.25;1.25;;;;;6.25;100.00;99095.03;6316325;22;45168;-93
2022/11/18 05:26:57;;;;;;;;;1.50;1.00;;;;;7.15;100.00;99252.00;6317487;22;46707;-92
2022/11/18 05:29:23;;;;;;;;;1.25;1.25;;;;;6.42;100.00;99124.31;6317657;22;44795;-92
2022/11/18 05:31:50;;;;;;;;;0.00;0.00;;;;;5.85;100.00;99034.78;6340193;22;45342;-94
2022/11/18 05:34:16;;;;;;;;;2.75;2.00;;;;;6.87;100.00;99208.03;6350064;22;45322;-93
2022/11/18 05:36:43;;;;;;;;;2.00;2.00;;;;;6.65;100.00;99176.25;6324075;22;45591;-93
2022/11/18 05:39:26;;;;;;;;;2.00;0.75;;;;;7.55;100.00;99321.00;6323868;22;45184;-92
2022/11/18 05:44:39;;;;;;;;;0.75;0.50;;;;;6.80;100.00;99221.38;6314527;22;45218;-94
2022/11/18 05:47:10;;;;;;;;;2.00;2.00;;;;;5.78;100.00;99050.69;6322081;22;47732;-94
2022/11/18 05:50:12;;;;;;;;;2.50;1.00;;;;;6.29;100.00;99143.94;6348801;22;45295;-94
2022/11/18 05:52:37;;;;;;;;;4.00;0.00;;;;;6.90;100.00;99244.72;6306777;22;44810;-94
2022/11/18 05:55:04;;;;;;;;;0.25;0.25;;;;;7.12;100.00;99294.09;6312259;22;44819;-94
2022/11/18 05:57:32;;;;;;;;;2.00;2.00;;;;;6.72;100.00;99232.06;6313095;22;46150;-93
2022/11/18 05:59:58;;;;;;;;;2.25;1.50;;;;;6.72;100.00;99247.84;6314326;22;45182;-93
2022/11/18 06:02:23;;;;;;;;;0.75;0.75;;;;;6.85;100.00;99249.25;6308017;22;45388;-93
2022/11/18 06:04:58;;;;;;;;;2.25;2.00;;;;;6.71;100.00;99235.59;6316419;22;45220;-94
2022/11/18 06:07:46;;;;;;;;;1.00;1.00;;;;;6.98;100.00;99277.81;6321327;22;47121;-93
2022/11/18 06:10:17;;;;;;;;;2.00;2.00;;;;;7.04;100.00;99301.31;6316644;22;45165;-96
2022/11/18 06:12:51;;;;;;;;;1.00;1.00;;;;;7.33;100.00;99362.78;6319121;22;45226;-95
2022/11/18 06:15:19;;;;;;;;;0.00;0.00;;;;;7.75;100.00;99436.19;6320285;22;45460;-94
2022/11/18 06:18:15;;;;;;;;;0.00;0.00;;;;;7.73;100.00;99432.72;6314449;22;45169;-94
2022/11/18 06:20:41;;;;;;;;;1.75;1.75;;;;;6.39;100.00;99226.75;6314501;22;44555;-94
2022/11/18 06:23:07;;;;;;;;;1.00;1.00;;;;;7.70;100.00;99464.34;6317425;22;45183;-94
2022/11/18 06:25:41;;;;;;;;;1.00;0.50;;;;;5.86;100.00;99154.53;6317157;22;45669;-95
2022/11/18 06:28:14;;;;;;;;;1.00;1.00;;;;;6.52;100.00;99285.09;6317086;22;47626;-94
2022/11/18 06:30:39;;;;;;;;;1.00;1.00;;;;;6.54;100.00;99286.78;6314312;22;45172;-91
2022/11/18 06:40:09;;;;;;;;;1.25;1.25;;;;;5.88;100.00;99185.94;6195448;22;45593;-93
2022/11/18 06:45:25;;;;;;;;;3.00;2.00;;;;;7.02;100.00;99395.94;6190388;23;45307;-92
2022/11/18 06:48:00;;;;;;;;;2.00;2.00;;;;;7.55;100.00;99484.91;6166588;23;45200;-92
2022/11/18 06:50:27;;;;;;;;;1.25;1.25;;;;;6.42;100.00;99331.69;6191694;23;46389;-93
2022/11/18 06:52:55;;;;;;;;;1.50;1.50;;;;;6.89;100.00;99382.25;6171742;23;45417;-94
2022/11/18 06:55:28;;;;;;;;;3.00;1.00;;;;;7.08;100.00;99422.06;6175094;23;44736;-93
2022/11/18 06:57:55;;;;;;;;;1.50;1.50;;;;;7.50;100.00;99507.84;6171558;23;44900;-93
2022/11/18 07:00:21;;;;;;;;;1.00;1.00;;;;;6.32;100.00;99303.94;6168100;23;46522;-91
2022/11/18 07:02:46;;;;;;;;;2.50;2.00;;;;;6.14;100.00;99287.69;6165393;23;45358;-92
2022/11/18 07:05:12;;;;;;;;;1.50;1.25;;;;;6.98;100.00;99432.84;6140809;23;45248;-90
2022/11/18 07:07:46;;;;;;;;;2.00;2.00;;;;;7.15;100.00;99456.97;6295629;22;44822;-93
2022/11/18 07:10:12;;;;;;;;;3.50;3.00;;;;;6.08;100.00;99300.94;6323652;22;46795;-93
2022/11/18 07:12:40;;;;;;;;;2.00;2.00;;;;;5.60;100.00;99222.38;6322116;22;45311;-92
2022/11/18 07:15:07;;;;;;;;;2.00;2.00;;;;;6.18;100.00;99336.59;6312818;22;45245;-94
2022/11/18 07:17:32;;;;;;;;;1.75;1.75;;;;;6.07;100.00;99330.69;6312205;22;45384;-93
2022/11/18 07:20:07;;;;;;;;;2.00;2.00;;;;;6.26;100.00;99343.44;6346245;22;48291;-94
2022/11/18 07:22:32;;;;;;;;;2.50;2.50;;;;;7.00;100.00;99481.81;6320596;22;44979;-94
2022/11/18 07:25:02;;;;;;;;;3.00;2.00;;;;;7.43;100.00;99571.97;6316474;22;45200;-94
2022/11/18 07:27:38;;;;;;;;;1.00;1.00;;;;;6.29;100.00;99370.47;6288887;22;45029;-93
2022/11/18 07:30:18;;;;;;;;;1.00;1.00;;;;;6.94;100.00;99490.69;6309052;22;46168;-92
2022/11/18 07:32:46;;;;;;;;;3.00;1.75;;;;;6.50;100.00;99395.38;6284527;22;45288;-93
2022/11/18 07:35:11;;;;;;;;;2.00;2.00;;;;;6.39;100.00;99379.00;6284926;22;45404;-94
2022/11/18 07:37:37;;;;;;;;;2.50;2.50;;;;;6.83;100.00;99457.69;6292076;22;44982;-93
2022/11/18 07:40:06;;;;;;;;;2.00;2.00;;;;;7.13;100.00;99495.53;6264793;22;46155;-93
2022/11/18 07:42:41;;;;;;;;;2.00;2.00;;;;;6.45;100.00;99388.50;6254080;22;45181;-92
2022/11/18 07:45:09;;;;;;;;;3.00;1.00;;;;;7.59;100.00;99575.97;6291967;22;44579;-92
2022/11/18 07:47:45;;;;;;;;;3.25;2.25;;;;;7.20;100.00;99497.13;6260727;22;44806;-91
2022/11/18 07:50:11;;;;;;;;;2.00;2.00;;;;;5.85;100.00;99276.03;6282118;22;46250;-90
2022/11/18 07:52:37;;;;;;;;;4.25;3.50;;;;;7.24;100.00;99505.78;6259227;22;45343;-92
2022/11/18 07:55:02;;;;;;;;;2.00;2.00;;;;;6.56;100.00;99383.88;6253809;22;45265;-94
2022/11/18 07:57:30;;;;;;;;;1.25;1.00;;;;;7.74;100.00;99594.91;6277483;22;45414;-93
2022/11/18 07:59:56;;;;;;;;;1.00;1.00;;;;;6.10;100.00;99307.00;6253834;22;48099;-93
2022/11/18 08:02:21;;;;;;;;;1.75;1.75;;;;;6.28;100.00;99331.13;6278140;22;45670;-93
2022/11/18 08:04:53;;;;;;;;;3.00;3.00;;;;;6.09;100.00;99288.69;6281845;22;45170;-94
2022/11/18 08:07:19;;;;;;;;;1.00;1.00;;;;;6.49;100.00;99362.16;6287969;22;45450;-93
2022/11/18 08:25:22;;;;;;;;;3.00;3.00;;;;;7.11;100.00;99355.44;6355295;22;44732;-93
2022/11/18 08:27:48;;;;;;;;;2.00;2.00;;;;;8.65;100.00;99576.81;6353190;22;45214;-91
2022/11/18 08:30:48;;;;;;;;;1.75;1.75;;;;;8.15;100.00;99491.25;6355127;22;44878;-94
2022/11/18 09:14:37;;;;;;;;;4.00;2.00;;;;;12.84;93.96;99627.03;5988671;23;45737;-94
2022/11/18 09:20:30;;;;;;;;;1.00;1.00;;;;;13.04;91.87;99567.81;6048130;23;45298;-94
2022/11/18 09:22:58;;;;;;;;;2.00;0.50;;;;;12.70;92.08;99486.31;6045045;23;44780;-94
2022/11/18 09:25:24;;;;;;;;;0.00;0.00;;;;;13.74;92.16;99638.91;6077462;23;45282;-93
2022/11/18 09:27:55;;;;;;;;;1.00;1.00;;;;;12.87;92.08;99475.75;6131644;23;45546;-93
2022/11/18 09:30:57;;;;;;;;;1.00;1.00;;;;;14.01;91.76;99629.63;6134084;23;45201;-92
2022/11/18 09:41:02;;;;;;;;;1.75;1.00;;;;;14.61;90.92;99622.25;6184381;23;45260;-94
2022/11/18 09:44:01;;;;;;;;;0.00;0.00;;;;;14.82;90.09;99634.44;6174024;22;45228;-94
2022/11/18 09:53:32;;;;;;;;;0.00;0.00;;;;;15.46;85.79;99550.22;6296806;22;44623;-96
2022/11/18 10:03:37;;;;;;;;;;;;;;;;;;;;;
2022/11/18 10:23:20;;;;;;;;;0.00;0.00;;;;;17.77;83.60;99665.41;6115218;23;45115;-94
2022/11/18 10:48:21;;;;;;;;;1.00;1.00;;;;;16.99;85.44;99524.34;6204089;22;44762;-94
2022/11/18 10:51:22;;;;;;;;;1.50;1.50;;;;;17.41;85.59;99618.69;6180742;23;44769;-93
2022/11/18 10:57:42;;;;;;;;;1.75;1.75;;;;;16.79;87.24;99577.13;6047173;23;45321;-92
2022/11/18 11:00:41;;;;;;;;;1.00;1.00;;;;;17.22;88.01;99675.94;6022737;23;45208;-92
2022/11/18 11:03:27;;;;;;;;;10.00;7.50;;;;;16.75;87.98;99615.63;6021893;23;45361;-93
2022/11/18 11:06:15;;;;;;;;;0.25;0.25;;;;;16.48;88.43;99611.00;6044971;23;45365;-92
2022/11/18 11:09:37;;;;;;;;;;;;;;;;;;;;;
2022/11/18 11:15:55;;;;;;;;;1.00;1.00;;;;;16.09;90.49;99673.69;6026829;23;45237;-93
2022/11/18 11:18:52;;;;;;;;;1.25;0.00;;;;;14.78;90.70;99507.00;5994926;23;47993;-92
2022/11/18 11:21:28;;;;;;;;;2.00;0.75;;;;;14.02;90.87;99418.78;6045610;23;44860;-93
2022/11/18 11:24:07;;;;;;;;;1.00;1.00;;;;;13.93;90.51;99427.25;6053438;23;45219;-93
2022/11/18 11:27:19;;;;;;;;;0.00;0.00;;;;;15.78;90.51;99693.22;6099100;23;45223;-94
2022/11/18 11:34:36;;;;;;;;;1.00;1.00;;;;;15.40;86.94;99477.84;6052226;23;45243;-95
2022/11/18 11:37:53;;;;;;;;;5.75;5.25;;;;;15.09;87.13;99421.88;5913444;24;45480;-94
2022/11/18 11:44:04;;;;;;;;;2.50;1.25;;;;;16.53;88.15;99682.72;5889423;24;45263;-93
2022/11/18 11:57:19;;;;;;;;;1.00;0.25;;;;;15.59;92.16;99680.00;5912300;23;44911;-93
2022/11/18 12:00:13;;;;;;;;;1.00;1.00;;;;;13.82;92.12;99427.81;5892229;24;45766;-94
2022/11/18 12:06:22;;;;;;;;;2.00;2.00;;;;;14.18;92.43;99533.13;5914366;23;44762;-93
2022/11/18 12:09:23;;;;;;;;;1.75;1.00;;;;;14.67;92.03;99633.44;5909658;24;45635;-95
2022/11/18 12:15:58;;;;;;;;;2.00;1.00;;;;;15.13;91.95;99680.69;6099676;23;45364;-92
2022/11/18 12:18:43;;;;;;;;;1.25;1.25;;;;;15.21;90.41;99677.63;6106714;23;45367;-94
2022/11/18 12:21:47;;;;;;;;;0.50;0.50;;;;;15.34;90.32;99686.69;6198874;22;45256;-93
2022/11/18 12:24:39;;;;;;;;;1.00;1.00;;;;;15.48;89.74;99666.44;6203340;22;45162;-92
2022/11/18 12:28:06;;;;;;;;;1.00;1.00;;;;;15.72;89.89;99689.06;6145677;23;44723;-94
2022/11/18 12:31:03;;;;;;;;;1.25;1.25;;;;;15.97;88.59;99683.25;6130732;23;44804;-94
2022/11/18 12:34:00;;;;;;;;;1.00;1.00;;;;;15.90;87.41;99635.72;6136109;23;45981;-94
2022/11/18 12:36:48;;;;;;;;;1.75;1.75;;;;;15.93;87.34;99590.25;6112005;23;44822;-94
2022/11/18 12:39:32;;;;;;;;;1.25;1.25;;;;;16.99;85.90;99685.34;6087262;23;45302;-93
2022/11/18 12:49:00;;;;;;;;;1.75;0.75;;;;;17.31;83.93;99681.66;6136466;23;45217;-94
2022/11/18 12:54:58;;;;;;;;;2.75;1.00;;;;;15.76;86.64;99522.78;6086175;23;44689;-94
2022/11/18 13:09:06;;;;;;;;;;;;;;;;;;;;;
2022/11/18 13:12:10;;;;;;;;;0.00;0.00;;;;;15.19;92.00;99700.81;5994947;23;74260;-93
2022/11/18 13:24:02;;;;;;;;;18.25;18.25;;;;;14.36;91.87;99701.44;6000179;23;45320;-94
2022/11/18 13:31:04;;;;;;;;;5.00;3.75;;;;;12.41;93.20;99419.59;6003704;23;44774;-94
2022/11/18 13:37:02;;;;;;;;;1.00;1.00;;;;;13.71;92.29;99625.78;5997327;23;45093;-92
2022/11/18 13:42:43;;;;;;;;;0.75;0.75;;;;;12.36;92.38;99400.38;6123998;23;45344;-95
2022/11/18 13:45:34;;;;;;;;;1.00;0.25;;;;;14.02;92.02;99700.41;6140528;23;45379;-94
2022/11/18 14:02:18;;;;;;;;;;;;;;;;;;;;;
2022/11/18 14:04:57;;;;;;;;;1.00;0.75;;;;;13.49;91.97;99679.88;6044952;23;72035;-94
2022/11/18 14:07:49;;;;;;;;;;;;;;;;;;;;;
2022/11/18 14:32:03;;;;;;;;;1.00;1.00;;;;;13.06;94.27;99709.19;6328223;22;44800;-94
2022/11/18 14:44:55;;;;;;;;;2.00;0.00;;;;;13.02;93.58;99714.69;6327277;22;45243;-94
2022/11/18 14:54:34;;;;;;;;;0.00;0.00;;;;;11.85;93.25;99566.78;6333527;22;44531;-93
2022/11/18 14:57:12;;;;;;;;;0.00;0.00;;;;;12.72;93.82;99720.38;6302800;22;44642;-93
2022/11/18 14:59:53;;;;;;;;;0.50;0.50;;;;;11.76;93.42;99573.28;6300111;22;45366;-95
2022/11/18 15:02:43;;;;;;;;;0.00;0.00;;;;;10.84;94.17;99443.78;6301075;22;46692;-92
2022/11/18 15:05:31;;;;;;;;;;;;;;;;;;;;;
2022/11/18 15:08:15;;;;;;;;;0.00;0.00;;;;;11.66;94.05;99611.63;6304398;22;45481;-94
2022/11/18 15:11:21;;;;;;;;;;;;;;;;;;;;;
2022/11/18 15:20:59;;;;;;;;;;;;;;;;;;;;;
2022/11/18 15:27:03;;;;;;;;;0.75;0.75;;;;;11.86;95.39;99765.28;6319738;22;45306;-95
2022/11/18 15:32:51;;;;;;;;;4.75;3.25;;;;;10.89;95.92;99641.00;6324134;22;45486;-92
2022/11/18 15:35:25;;;;;;;;;3.00;3.00;;;;;11.65;95.88;99796.06;6292437;22;45493;-92
2022/11/18 15:37:51;;;;;;;;;1.00;1.00;;;;;10.48;95.97;99601.91;6324309;22;46176;-94
2022/11/18 15:40:19;;;;;;;;;3.00;2.00;;;;;11.58;96.73;99793.69;6299193;22;44705;-93
2022/11/18 15:42:44;;;;;;;;;1.00;1.00;;;;;11.16;96.17;99718.50;6301789;22;45295;-92
2022/11/18 15:45:15;;;;;;;;;0.25;0.25;;;;;9.67;96.89;99478.78;6302085;22;44803;-92
2022/11/18 15:47:46;;;;;;;;;0.00;0.00;;;;;9.75;96.68;99509.28;6306181;22;46821;-93
2022/11/18 15:50:12;;;;;;;;;1.50;1.00;;;;;9.48;96.68;99481.19;6275230;22;44599;-92
2022/11/18 15:52:38;;;;;;;;;2.00;1.00;;;;;9.68;96.74;99510.41;6296283;22;45188;-92
2022/11/18 15:55:07;;;;;;;;;2.00;2.00;;;;;10.51;97.29;99661.69;6295633;22;45086;-93
2022/11/18 15:58:00;;;;;;;;;1.00;1.00;;;;;9.90;97.16;99592.38;6268187;22;47638;-93
2022/11/18 16:00:30;;;;;;;;;2.00;1.25;;;;;10.08;97.51;99635.78;6296968;22;45302;-92
2022/11/18 16:03:10;;;;;;;;;1.75;1.25;;;;;11.16;98.05;99814.56;6298333;22;45223;-92
2022/11/18 16:05:36;;;;;;;;;2.25;1.25;;;;;10.36;97.54;99686.88;6301078;22;44796;-92
2022/11/18 16:08:01;;;;;;;;;2.50;2.00;;;;;10.49;97.56;99735.72;6290958;22;47305;-92
2022/11/18 16:13:11;;;;;;;;;1.00;1.00;;;;;9.99;97.66;99645.78;6314817;22;45469;-91
2022/11/18 16:15:42;;;;;;;;;4.25;2.00;;;;;9.69;97.54;99617.69;6292204;22;45224;-91
2022/11/18 16:18:08;;;;;;;;;2.00;1.00;;;;;9.94;97.90;99659.13;6296092;22;45992;-91
2022/11/18 16:20:36;;;;;;;;;2.50;2.50;;;;;9.91;97.42;99667.13;6296343;22;44860;-93
2022/11/18 16:23:02;;;;;;;;;3.50;3.50;;;;;9.56;97.89;99608.41;6286275;22;45300;-91
2022/11/18 16:25:27;;;;;;;;;3.50;2.00;;;;;10.22;98.27;99718.97;6282398;22;45374;-91
2022/11/18 16:27:55;;;;;;;;;2.25;2.25;;;;;9.23;98.14;99566.34;6286050;22;46673;-92
2022/11/18 16:33:05;;;;;;;;;1.00;1.00;;;;;10.24;98.86;99748.84;6320355;22;44844;-90
2022/11/18 16:35:30;;;;;;;;;1.00;1.00;;;;;10.38;98.31;99775.69;6292239;22;44863;-92
2022/11/18 16:37:56;;;;;;;;;2.00;2.00;;;;;9.10;98.71;99562.38;6296856;22;46792;-91
2022/11/18 16:40:23;;;;;;;;;1.00;1.00;;;;;9.71;98.34;99676.53;6299805;22;44957;-92
2022/11/18 16:42:49;;;;;;;;;3.75;2.00;;;;;9.86;98.49;99701.59;6320911;22;45173;-93
2022/11/18 16:45:14;;;;;;;;;1.50;1.50;;;;;9.72;98.30;99693.25;6292604;22;45177;-92
2022/11/18 16:47:45;;;;;;;;;1.00;1.00;;;;;10.78;98.38;99860.75;6322592;22;45282;-95
2022/11/18 16:50:14;;;;;;;;;1.75;1.75;;;;;10.35;98.32;99790.78;6295243;22;45646;-92
2022/11/18 16:52:39;;;;;;;;;3.75;2.75;;;;;10.78;98.48;99874.88;6295975;22;45328;-93
2022/11/18 16:55:05;;;;;;;;;2.00;2.00;;;;;9.83;98.13;99701.69;6300451;22;45559;-93
2022/11/18 16:57:31;;;;;;;;;4.00;3.75;;;;;9.65;98.02;99700.47;6292927;22;46557;-90
2022/11/18 16:59:56;;;;;;;;;1.00;1.00;;;;;10.38;98.06;99831.19;6316103;22;45218;-89
2022/11/18 17:02:22;;;;;;;;;2.00;2.00;;;;;9.71;98.17;99712.63;6282372;22;45649;-90
2022/11/18 17:04:48;;;;;;;;;2.00;1.75;;;;;10.76;98.35;99900.47;6280657;22;45437;-90
2022/11/18 17:07:13;;;;;;;;;3.00;1.75;;;;;10.76;97.97;99897.81;6309295;22;46185;-88
2022/11/18 17:09:39;;;;;;;;;1.75;1.75;;;;;9.83;97.94;99729.88;6314294;22;45384;-91
2022/11/18 17:12:05;;;;;;;;;1.75;1.75;;;;;10.34;98.76;99824.28;6288314;22;44905;-89
2022/11/18 17:14:30;;;;;;;;;3.75;3.00;;;;;10.75;98.37;99890.81;6281305;22;45415;-90
2022/11/18 17:16:56;;;;;;;;;4.25;3.25;;;;;9.50;97.86;99682.47;6313363;22;45998;-90
2022/11/18 17:19:23;;;;;;;;;3.00;2.50;;;;;10.75;98.36;99897.88;6318883;22;45312;-91
2022/11/18 17:21:50;;;;;;;;;2.75;2.00;;;;;10.10;98.16;99794.16;6285260;22;45349;-90
2022/11/18 17:24:18;;;;;;;;;3.00;3.00;;;;;9.91;98.03;99763.03;6306067;22;45533;-90
2022/11/18 17:26:44;;;;;;;;;5.25;4.00;;;;;10.68;98.71;99894.56;6281798;22;48159;-91
2022/11/18 17:29:11;;;;;;;;;2.00;2.00;;;;;10.25;98.84;99829.81;6284989;22;45294;-90
2022/11/18 17:31:39;;;;;;;;;4.50;2.75;;;;;10.19;98.83;99824.69;6312232;22;45410;-92
2022/11/18 17:34:05;;;;;;;;;2.00;2.00;;;;;10.17;98.61;99821.25;6288119;22;45686;-90
2022/11/18 17:36:31;;;;;;;;;1.25;1.00;;;;;9.77;98.60;99779.28;6290598;22;46977;-92
2022/11/18 17:38:59;;;;;;;;;3.00;3.00;;;;;8.67;98.51;99596.06;6287612;22;45271;-90
2022/11/18 17:44:13;;;;;;;;;3.00;3.00;;;;;8.51;98.75;99582.47;6315616;22;45362;-92